El Dorado Springs, MO (64744)

7:45 AM CDT on July 26, 2014 (GMT -0500)
City Park (KMOSTOCK3) Elev 958 ft | 37.70 °N, 93.80 °W | Change Station

Current weather conditions updated 3 seconds ago

Partly Cloudy
Partly Cloudy
80.1 °F
Feels Like 84 °F
N
4.5
Wind Variable Wind from South
Gusts 7.6 mph

Today is forecast to be nearly the same temperature as yesterday.

Today
High -- | Low -- °F
--% Chance of Precip.
Yesterday
High -- | Low -- °F
Precip. -- in
6:14 AM 8:30 PM
Waning Crescent, 0% visible
Pressure 29.87 in
Visibility 7.0 miles
Clouds Few 12000 ft
Heat Index 84 °F
Dew Point 73 °F
Humidity 80%
Rainfall 0.00 in
Snow Depth Not available.
UV 1 out of 12
Pollen 6.80 out of 12
Air Quality Not available.
Flu Activity Not available.
METAR KGLY 261235Z AUTO 20009G15KT 7SM FEW120 27/23 A2987 RMK AO2

More Conditions Fewer Conditions

Pressure 29.87 in
Visibility 7.0 miles
Clouds Few 12000 ft
Heat Index 84 °F
Dew Point 73 °F
Humidity 80%
Rainfall 0.00 in
Snow Depth Not available.
UV 1 out of 12
Pollen 6.80 out of 12
Air Quality Not available.
Flu Activity Not available.
METAR KGLY 261235Z AUTO 20009G15KT 7SM FEW120 27/23 A2987 RMK AO2

More Conditions Fewer Conditions

10-Day Weather Forecast

Almanac

Astronomy

Jul. 26, 2014 Rise Set
Actual Time 6:14 AM CDT 8:30 PM CDT
Civil Twilight 5:44 AM CDT 8:59 PM CDT
Nautical Twilight 5:08 AM CDT 9:36 PM CDT
Astronomical Twilight 4:28 AM CDT 10:15 PM CDT
Moon 6:06 AM CDT 8:07 PM CDT
Length of Visible Light 15h 15m
Length of Day
14h 15m
Tomorrow will be 1m 40s shorter.
Waning Crescent, 0% of the Moon is Illuminated
Today
Waning Crescent
Jul 26
New
Aug 3
First Quarter
Aug 10
Full
Aug 17
Last Quarter

Today's Extremes

State Highs State Lows

Community

WunderPhotos

Upload Photos

1,737,558 photos uploaded!

Nearby

Snow Depth

Station Depth Elevation
No new snow has been reported.

Earthquake Activity

City Distance Mag. Time & Date
No recent earthquake activity has been reported nearby.
Minimum magnitude displayed is 2.5.

Coastal Water Temperatures

Place Temperature
No Stations Reporting

Nearby Weather Stations

Station Location Temp. Heat Index Dew Point Humidity Wind Precip. Elev Updated Type
City Park, Stockton, MO 80.1 °F 84 °F 73 °F 80% South  at  4.5 mph 0.00 in / hr 958 ft 7:45 AM CDT Rapid Fire
Vernon Co. EOC, Nevada, MO 78.5 °F 81 °F 72 °F 82% South  at  5.0 mph 0.00 in / hr 900 ft 7:45 AM CDT Rapid Fire
Between Arnica And Bugtussle, Humansville, MO 79.2 °F 81 °F 66 °F 65% SE  at  0.9 mph 0.00 in / hr 1010 ft 7:45 AM CDT Normal
Irwin, MO, Lamar, MO 77.7 °F 80 °F 72 °F 83% SSW  at  6.0 mph 0.00 in / hr 955 ft 7:35 AM CDT Normal

Show More Stations Show Fewer Stations